Time;durP1;ratioP1;P1;durP2;ratioP2;P2;SDS_P1;SDS_P2;PMS_P1;PMS_P2;Temp;Humidity;BMP_temperature;BMP_pressure;BME280_temperature;BME280_humidity;BME280_pressure;Samples;Min_cycle;Max_cycle;Signal;HPM_P1;HPM_P2
2022/09/14 00:00:20;;;;;;;15.33;10.20;;;;;;;;;;4885682;29;20935;-44
2022/09/14 00:02:46;;;;;;;12.70;10.30;;;;;;;;;;4887053;29;20260;-44
2022/09/14 00:05:13;;;;;;;12.00;9.60;;;;;;;;;;4889173;29;20524;-44
2022/09/14 00:07:39;;;;;;;14.03;8.63;;;;;;;;;;4884869;29;20181;-44
2022/09/14 00:10:05;;;;;;;13.60;9.60;;;;;;;;;;4883612;29;20527;-44
2022/09/14 00:12:31;;;;;;;15.87;11.07;;;;;;;;;;4890255;29;20735;-44
2022/09/14 00:14:57;;;;;;;16.43;10.50;;;;;;;;;;4889172;29;20720;-44
2022/09/14 00:17:23;;;;;;;19.47;11.13;;;;;;;;;;4889374;29;20435;-44
2022/09/14 00:19:49;;;;;;;13.33;9.90;;;;;;;;;;4889301;29;20187;-44
2022/09/14 00:22:15;;;;;;;11.67;9.57;;;;;;;;;;4889594;29;20181;-44
2022/09/14 00:24:41;;;;;;;19.07;11.13;;;;;;;;;;4889678;29;20192;-44
2022/09/14 00:27:09;;;;;;;18.50;11.17;;;;;;;;;;4888811;29;21207;-44
2022/09/14 00:29:35;;;;;;;16.77;11.17;;;;;;;;;;4885619;29;20191;-43
2022/09/14 00:32:01;;;;;;;14.93;11.10;;;;;;;;;;4887209;29;20287;-44
2022/09/14 00:34:27;;;;;;;19.83;10.17;;;;;;;;;;4887155;29;20503;-44
2022/09/14 00:36:54;;;;;;;13.60;11.07;;;;;;;;;;4884857;29;20582;-43
2022/09/14 00:39:22;;;;;;;15.80;10.60;;;;;;;;;;4882079;29;20736;-44
2022/09/14 00:41:49;;;;;;;18.50;11.83;;;;;;;;;;4885270;29;20945;-43
2022/09/14 00:44:15;;;;;;;17.90;11.93;;;;;;;;;;4890004;29;20760;-43
2022/09/14 00:46:45;;;;;;;17.00;11.40;;;;;;;;;;4879906;28;20187;-44
2022/09/14 00:49:16;;;;;;;12.93;10.23;;;;;;;;;;4880582;29;20195;-44
2022/09/14 00:52:02;;;;;;;15.13;11.30;;;;;;;;;;4885262;29;20777;-43
2022/09/14 00:54:29;;;;;;;16.37;11.27;;;;;;;;;;4885846;29;21779;-44
2022/09/14 00:56:57;;;;;;;13.50;10.53;;;;;;;;;;4886136;29;20259;-43
2022/09/14 00:59:26;;;;;;;12.93;9.60;;;;;;;;;;4884331;29;20787;-44
2022/09/14 01:01:52;;;;;;;12.93;9.13;;;;;;;;;;4879981;29;20411;-44
2022/09/14 01:04:19;;;;;;;12.73;9.90;;;;;;;;;;4887916;29;20184;-44
2022/09/14 01:06:47;;;;;;;18.00;11.23;;;;;;;;;;4889206;29;20180;-44
2022/09/14 01:09:13;;;;;;;17.70;10.90;;;;;;;;;;4882908;29;21124;-44
2022/09/14 01:11:45;;;;;;;12.70;10.37;;;;;;;;;;4885725;29;21075;-44
2022/09/14 01:14:16;;;;;;;14.67;10.63;;;;;;;;;;4886625;29;20436;-44
2022/09/14 01:16:58;;;;;;;12.30;9.40;;;;;;;;;;4888235;29;20215;-44
2022/09/14 01:19:45;;;;;;;10.73;9.03;;;;;;;;;;4886578;29;20291;-44
2022/09/14 01:22:18;;;;;;;16.50;10.47;;;;;;;;;;4885002;29;20685;-44
2022/09/14 01:24:55;;;;;;;14.23;9.43;;;;;;;;;;4885163;29;20204;-44
2022/09/14 01:27:26;;;;;;;13.67;8.77;;;;;;;;;;4888171;29;20392;-44
2022/09/14 01:29:52;;;;;;;14.30;9.57;;;;;;;;;;4889095;29;20471;-44
2022/09/14 01:32:19;;;;;;;11.67;9.03;;;;;;;;;;4888314;28;20211;-44
2022/09/14 01:34:49;;;;;;;13.97;10.50;;;;;;;;;;4887636;29;20184;-44
2022/09/14 01:37:17;;;;;;;9.80;8.80;;;;;;;;;;4888989;29;20589;-44
2022/09/14 01:39:45;;;;;;;13.30;9.73;;;;;;;;;;4889183;29;20247;-44
2022/09/14 01:42:12;;;;;;;17.00;9.60;;;;;;;;;;4890461;29;20334;-43
2022/09/14 01:44:41;;;;;;;12.97;9.43;;;;;;;;;;4887202;29;20269;-44
2022/09/14 01:47:22;;;;;;;11.93;8.27;;;;;;;;;;4883294;29;20272;-44
2022/09/14 01:49:53;;;;;;;12.83;9.93;;;;;;;;;;4887939;29;20311;-44
2022/09/14 01:52:21;;;;;;;14.50;9.37;;;;;;;;;;4887984;29;20257;-44
2022/09/14 01:54:49;;;;;;;15.30;10.87;;;;;;;;;;4883774;29;20880;-46
2022/09/14 01:57:28;;;;;;;12.70;9.43;;;;;;;;;;4872158;29;20733;-45
2022/09/14 01:59:57;;;;;;;13.33;10.00;;;;;;;;;;4887371;29;20176;-44
2022/09/14 02:02:46;;;;;;;12.23;9.90;;;;;;;;;;4883356;29;20259;-44
2022/09/14 02:05:17;;;;;;;10.70;9.00;;;;;;;;;;4886910;28;20525;-45
2022/09/14 02:07:43;;;;;;;13.20;10.27;;;;;;;;;;4882765;29;20191;-45
2022/09/14 02:10:10;;;;;;;10.47;9.27;;;;;;;;;;4885829;29;20244;-43
2022/09/14 02:12:37;;;;;;;12.13;9.53;;;;;;;;;;4889410;29;20207;-43
2022/09/14 02:15:04;;;;;;;12.93;10.77;;;;;;;;;;4884019;29;20189;-43
2022/09/14 02:17:30;;;;;;;12.03;10.60;;;;;;;;;;4886624;29;21066;-43
2022/09/14 02:19:57;;;;;;;14.67;10.73;;;;;;;;;;4886051;29;20559;-43
2022/09/14 02:22:24;;;;;;;14.10;10.73;;;;;;;;;;4883112;28;20283;-43
2022/09/14 02:24:51;;;;;;;12.53;11.13;;;;;;;;;;4886130;29;20710;-43
2022/09/14 02:27:17;;;;;;;15.60;11.80;;;;;;;;;;4881084;29;20180;-43
2022/09/14 02:29:44;;;;;;;12.07;10.13;;;;;;;;;;4888714;29;20507;-43
2022/09/14 02:32:33;;;;;;;12.70;9.80;;;;;;;;;;4886888;29;20311;-43
2022/09/14 02:35:02;;;;;;;14.33;10.20;;;;;;;;;;4885067;29;20271;-43
2022/09/14 02:37:42;;;;;;;12.80;10.17;;;;;;;;;;4884158;29;20224;-43
2022/09/14 02:40:17;;;;;;;13.63;10.27;;;;;;;;;;4885712;29;20701;-43
2022/09/14 02:42:43;;;;;;;12.97;9.77;;;;;;;;;;4886377;28;20878;-42
2022/09/14 02:45:15;;;;;;;16.00;11.50;;;;;;;;;;4889237;29;20628;-43
2022/09/14 02:48:01;;;;;;;14.43;10.93;;;;;;;;;;4886241;29;20670;-43
2022/09/14 02:50:27;;;;;;;15.47;12.80;;;;;;;;;;4895025;28;21059;-43
2022/09/14 02:52:58;;;;;;;12.13;10.33;;;;;;;;;;4898197;28;20779;-43
2022/09/14 02:55:25;;;;;;;11.50;9.63;;;;;;;;;;4883002;29;20654;-43
2022/09/14 02:57:59;;;;;;;13.63;10.63;;;;;;;;;;4886295;29;20215;-43
2022/09/14 03:00:26;;;;;;;11.93;10.10;;;;;;;;;;4884872;29;20191;-43
2022/09/14 03:02:52;;;;;;;12.90;9.73;;;;;;;;;;4882075;28;20208;-43
2022/09/14 03:05:18;;;;;;;16.60;13.33;;;;;;;;;;4883067;29;20697;-43
2022/09/14 03:07:44;;;;;;;15.20;13.17;;;;;;;;;;4886136;28;20843;-43
2022/09/14 03:10:10;;;;;;;16.83;10.70;;;;;;;;;;4884412;29;21412;-44
2022/09/14 03:12:37;;;;;;;15.30;11.57;;;;;;;;;;4883030;29;20263;-43
2022/09/14 03:15:04;;;;;;;12.03;10.70;;;;;;;;;;4886048;28;20181;-44
2022/09/14 03:17:30;;;;;;;17.27;12.13;;;;;;;;;;4885424;29;20261;-44
2022/09/14 03:19:56;;;;;;;17.20;13.63;;;;;;;;;;4885123;29;20203;-44
2022/09/14 03:22:22;;;;;;;16.90;13.53;;;;;;;;;;4884939;29;21334;-44
2022/09/14 03:24:48;;;;;;;15.57;12.77;;;;;;;;;;4887897;29;20444;-44
2022/09/14 03:27:14;;;;;;;21.07;14.57;;;;;;;;;;4890592;29;20539;-43
2022/09/14 03:29:40;;;;;;;18.23;14.13;;;;;;;;;;4889166;29;20690;-44
2022/09/14 03:32:06;;;;;;;15.17;13.40;;;;;;;;;;4888948;29;20784;-44
2022/09/14 03:34:33;;;;;;;19.83;14.40;;;;;;;;;;4891605;29;20183;-44
2022/09/14 03:36:59;;;;;;;16.70;13.67;;;;;;;;;;4889764;29;20560;-44
2022/09/14 03:39:25;;;;;;;17.30;13.97;;;;;;;;;;4890754;29;20767;-44
2022/09/14 03:41:51;;;;;;;17.43;13.47;;;;;;;;;;4886050;29;20972;-44
2022/09/14 03:44:17;;;;;;;14.23;11.67;;;;;;;;;;4884506;29;20192;-44
2022/09/14 03:46:44;;;;;;;17.53;13.03;;;;;;;;;;4890877;29;20184;-44
2022/09/14 03:49:10;;;;;;;14.37;11.80;;;;;;;;;;4888565;29;20472;-44
2022/09/14 03:51:36;;;;;;;14.93;12.20;;;;;;;;;;4883183;29;20366;-44
2022/09/14 03:54:02;;;;;;;15.50;12.73;;;;;;;;;;4883061;29;20215;-44
2022/09/14 03:56:28;;;;;;;19.03;13.40;;;;;;;;;;4888917;29;20878;-44
2022/09/14 03:58:54;;;;;;;17.67;13.70;;;;;;;;;;4889761;29;20310;-44
2022/09/14 04:01:21;;;;;;;20.10;14.03;;;;;;;;;;4886085;29;20219;-44
2022/09/14 04:03:48;;;;;;;17.97;14.53;;;;;;;;;;4884380;29;20279;-44
2022/09/14 04:06:14;;;;;;;25.70;15.03;;;;;;;;;;4887928;29;20184;-44
2022/09/14 04:08:41;;;;;;;26.33;16.63;;;;;;;;;;4885389;28;20677;-44
2022/09/14 04:11:12;;;;;;;31.83;19.70;;;;;;;;;;4886858;29;20181;-44
2022/09/14 04:13:38;;;;;;;29.03;20.37;;;;;;;;;;4888338;29;20594;-44
2022/09/14 04:16:04;;;;;;;23.30;17.20;;;;;;;;;;4885249;29;20965;-44
2022/09/14 04:18:31;;;;;;;25.67;17.70;;;;;;;;;;4882778;29;20176;-44
2022/09/14 04:20:58;;;;;;;26.37;17.60;;;;;;;;;;4887097;29;20226;-44
2022/09/14 04:23:24;;;;;;;19.93;15.63;;;;;;;;;;4883824;29;20725;-44
2022/09/14 04:25:51;;;;;;;25.77;18.77;;;;;;;;;;4880033;29;21558;-44
2022/09/14 04:28:17;;;;;;;24.00;17.97;;;;;;;;;;4890391;28;21360;-44
2022/09/14 04:30:43;;;;;;;22.23;16.27;;;;;;;;;;4884169;29;20895;-44
2022/09/14 04:33:09;;;;;;;22.47;16.90;;;;;;;;;;4885886;29;20326;-44
2022/09/14 04:35:36;;;;;;;25.33;16.23;;;;;;;;;;4885549;29;20172;-44
2022/09/14 04:38:03;;;;;;;24.50;18.50;;;;;;;;;;4888687;29;20455;-44
2022/09/14 04:40:29;;;;;;;25.50;17.10;;;;;;;;;;4885038;29;20885;-44
2022/09/14 04:42:56;;;;;;;26.37;18.10;;;;;;;;;;4885620;29;20180;-44
2022/09/14 04:45:22;;;;;;;19.90;14.53;;;;;;;;;;4884714;29;20640;-44
2022/09/14 04:47:49;;;;;;;25.53;17.53;;;;;;;;;;4883442;29;20226;-44
2022/09/14 04:50:15;;;;;;;21.50;15.40;;;;;;;;;;4884619;29;20184;-45
2022/09/14 04:52:41;;;;;;;21.77;15.97;;;;;;;;;;4888573;29;20630;-44
2022/09/14 04:55:08;;;;;;;17.70;13.43;;;;;;;;;;4882795;29;20849;-44
2022/09/14 04:57:34;;;;;;;17.17;14.00;;;;;;;;;;4886520;29;20607;-43
2022/09/14 05:00:00;;;;;;;17.50;12.60;;;;;;;;;;4888081;29;20586;-43
2022/09/14 05:02:26;;;;;;;15.53;12.53;;;;;;;;;;4896912;28;20192;-46
2022/09/14 05:04:52;;;;;;;19.40;11.10;;;;;;;;;;4885385;29;20188;-44
2022/09/14 05:07:18;;;;;;;16.43;11.60;;;;;;;;;;4882729;29;20186;-44
2022/09/14 05:09:44;;;;;;;12.00;10.00;;;;;;;;;;4885054;29;20188;-44
2022/09/14 05:12:10;;;;;;;15.30;10.60;;;;;;;;;;4886145;29;20432;-44
2022/09/14 05:14:36;;;;;;;16.23;10.00;;;;;;;;;;4878589;29;20177;-44
2022/09/14 05:17:03;;;;;;;19.57;10.90;;;;;;;;;;4883891;29;20188;-44
2022/09/14 05:19:29;;;;;;;14.23;9.10;;;;;;;;;;4885557;29;20435;-44
2022/09/14 05:21:55;;;;;;;12.43;8.90;;;;;;;;;;4886132;29;20218;-44
2022/09/14 05:24:21;;;;;;;11.40;7.93;;;;;;;;;;4883371;28;20192;-43
2022/09/14 05:26:48;;;;;;;12.17;7.70;;;;;;;;;;4883634;29;20404;-43
2022/09/14 05:29:15;;;;;;;15.97;8.20;;;;;;;;;;4883438;29;20179;-43
2022/09/14 05:31:41;;;;;;;11.43;8.17;;;;;;;;;;4882346;29;20847;-43
2022/09/14 05:34:09;;;;;;;9.20;6.33;;;;;;;;;;4888598;29;20184;-42
2022/09/14 05:36:36;;;;;;;16.20;7.57;;;;;;;;;;4885949;29;20442;-43
2022/09/14 05:39:02;;;;;;;12.07;6.60;;;;;;;;;;4882497;29;20186;-43
2022/09/14 05:41:28;;;;;;;10.73;6.10;;;;;;;;;;4884451;29;20361;-43
2022/09/14 05:43:54;;;;;;;12.13;6.33;;;;;;;;;;4894642;29;20182;-43
2022/09/14 05:46:21;;;;;;;12.67;5.70;;;;;;;;;;4888306;29;20190;-43
2022/09/14 05:48:50;;;;;;;10.17;5.70;;;;;;;;;;4895022;29;20195;-43
2022/09/14 05:51:18;;;;;;;10.47;6.40;;;;;;;;;;4888675;29;20274;-43
2022/09/14 05:53:51;;;;;;;9.33;6.00;;;;;;;;;;4907313;28;20383;-43
2022/09/14 05:56:18;;;;;;;10.03;6.07;;;;;;;;;;4898519;29;20169;-43
2022/09/14 05:58:44;;;;;;;12.03;6.40;;;;;;;;;;4890946;29;20736;-45
2022/09/14 06:01:15;;;;;;;9.83;6.03;;;;;;;;;;4893912;29;20288;-44
2022/09/14 06:03:41;;;;;;;10.73;6.50;;;;;;;;;;4895533;29;20207;-44
2022/09/14 06:06:08;;;;;;;8.23;6.47;;;;;;;;;;4897886;29;20227;-44
2022/09/14 06:08:35;;;;;;;13.43;7.03;;;;;;;;;;4897624;29;20283;-44
2022/09/14 06:11:05;;;;;;;10.20;6.53;;;;;;;;;;4893227;29;20279;-44
2022/09/14 06:13:31;;;;;;;13.07;7.30;;;;;;;;;;4891333;29;20399;-44
2022/09/14 06:16:01;;;;;;;11.63;6.10;;;;;;;;;;4896334;29;20188;-44
2022/09/14 06:18:28;;;;;;;12.10;7.10;;;;;;;;;;4902270;28;20180;-44
2022/09/14 06:20:55;;;;;;;11.70;6.33;;;;;;;;;;4890625;29;20177;-44
2022/09/14 06:23:21;;;;;;;8.93;6.00;;;;;;;;;;4892785;29;20184;-44
2022/09/14 06:25:47;;;;;;;11.73;6.13;;;;;;;;;;4898211;28;20199;-44
2022/09/14 06:28:13;;;;;;;10.03;6.73;;;;;;;;;;4900959;29;20239;-44
2022/09/14 06:30:42;;;;;;;14.37;7.07;;;;;;;;;;4895792;28;20262;-44
2022/09/14 06:33:08;;;;;;;9.47;6.53;;;;;;;;;;4897831;29;20196;-44
2022/09/14 06:35:34;;;;;;;14.10;6.93;;;;;;;;;;4900154;29;20180;-44
2022/09/14 06:38:00;;;;;;;13.13;6.77;;;;;;;;;;4902226;29;20181;-44
2022/09/14 06:40:28;;;;;;;11.77;6.87;;;;;;;;;;4895209;29;20201;-44
2022/09/14 06:42:54;;;;;;;14.30;6.83;;;;;;;;;;4895222;29;20187;-44
2022/09/14 06:45:20;;;;;;;15.47;7.83;;;;;;;;;;4901354;29;20194;-44
2022/09/14 06:47:46;;;;;;;15.30;6.73;;;;;;;;;;4904458;29;20928;-44
2022/09/14 06:50:12;;;;;;;12.43;6.77;;;;;;;;;;4900461;29;20489;-44
2022/09/14 06:52:39;;;;;;;12.47;6.73;;;;;;;;;;4901335;29;20208;-44
2022/09/14 06:55:05;;;;;;;11.87;6.73;;;;;;;;;;4899832;29;20691;-44
2022/09/14 06:57:31;;;;;;;12.03;5.60;;;;;;;;;;4899872;29;20638;-43
2022/09/14 06:59:57;;;;;;;9.10;4.63;;;;;;;;;;4901631;29;20718;-44
2022/09/14 07:02:23;;;;;;;10.17;4.73;;;;;;;;;;4901873;29;20227;-44
2022/09/14 07:04:49;;;;;;;9.97;5.67;;;;;;;;;;4900533;29;20661;-44
2022/09/14 07:07:15;;;;;;;6.07;3.93;;;;;;;;;;4897872;29;20745;-44
2022/09/14 07:09:41;;;;;;;7.90;3.80;;;;;;;;;;4901308;29;20727;-44
2022/09/14 07:12:08;;;;;;;8.83;4.20;;;;;;;;;;4901826;29;20208;-44
2022/09/14 07:14:35;;;;;;;8.93;4.43;;;;;;;;;;4899915;29;20309;-44
2022/09/14 07:17:01;;;;;;;9.13;3.50;;;;;;;;;;4900725;29;20508;-44
2022/09/14 07:19:27;;;;;;;10.97;3.03;;;;;;;;;;4900287;29;20607;-44
2022/09/14 07:21:53;;;;;;;8.63;3.10;;;;;;;;;;4900019;29;20188;-44
2022/09/14 07:24:20;;;;;;;8.20;3.03;;;;;;;;;;4900035;29;20203;-44
2022/09/14 07:26:46;;;;;;;6.67;2.73;;;;;;;;;;4898305;29;20183;-44
2022/09/14 07:29:16;;;;;;;9.03;3.47;;;;;;;;;;4894663;29;20624;-44
2022/09/14 07:31:50;;;;;;;7.40;3.10;;;;;;;;;;4897385;29;20238;-44
2022/09/14 07:34:16;;;;;;;7.77;3.90;;;;;;;;;;4898910;29;20180;-44
2022/09/14 07:36:42;;;;;;;7.77;3.47;;;;;;;;;;4898618;29;20650;-44
2022/09/14 07:39:10;;;;;;;7.97;3.40;;;;;;;;;;4891786;29;20287;-44
2022/09/14 07:41:36;;;;;;;12.90;3.97;;;;;;;;;;4901620;29;20295;-44
2022/09/14 07:44:03;;;;;;;21.47;4.67;;;;;;;;;;4899421;28;20624;-44
2022/09/14 07:46:31;;;;;;;7.73;3.33;;;;;;;;;;4900034;29;20527;-44
2022/09/14 07:48:59;;;;;;;7.87;3.33;;;;;;;;;;4898235;29;20192;-44
2022/09/14 07:51:26;;;;;;;12.93;3.70;;;;;;;;;;4896255;29;20404;-44
2022/09/14 07:53:52;;;;;;;13.30;4.17;;;;;;;;;;4894651;29;20215;-44
2022/09/14 07:56:19;;;;;;;9.93;4.00;;;;;;;;;;4897383;29;20218;-43
2022/09/14 07:58:45;;;;;;;8.67;3.60;;;;;;;;;;4899819;29;20172;-44
2022/09/14 08:01:12;;;;;;;14.83;3.77;;;;;;;;;;4900501;29;20168;-44
2022/09/14 08:03:39;;;;;;;12.97;4.20;;;;;;;;;;4899912;29;20571;-44
2022/09/14 08:06:07;;;;;;;13.67;5.10;;;;;;;;;;4896431;29;20180;-44
2022/09/14 08:08:35;;;;;;;11.23;4.37;;;;;;;;;;4899344;29;20194;-44
2022/09/14 08:11:24;;;;;;;12.63;4.60;;;;;;;;;;4902938;29;20379;-44
2022/09/14 08:13:52;;;;;;;12.77;5.17;;;;;;;;;;4900575;28;20753;-44
2022/09/14 08:16:18;;;;;;;10.40;4.10;;;;;;;;;;4896179;29;21110;-44
2022/09/14 08:18:45;;;;;;;9.70;3.90;;;;;;;;;;4902751;29;20267;-42
2022/09/14 08:21:12;;;;;;;11.30;4.30;;;;;;;;;;4901121;29;20192;-44
2022/09/14 08:23:39;;;;;;;9.17;4.30;;;;;;;;;;4900304;29;20180;-44
2022/09/14 08:26:06;;;;;;;9.83;4.00;;;;;;;;;;4898460;29;20180;-44
2022/09/14 08:28:32;;;;;;;10.07;4.93;;;;;;;;;;4899593;29;20183;-44
2022/09/14 08:31:05;;;;;;;9.23;4.77;;;;;;;;;;4897052;29;20459;-43
2022/09/14 08:33:33;;;;;;;10.60;6.23;;;;;;;;;;4900636;29;20221;-44
2022/09/14 08:35:59;;;;;;;10.33;5.80;;;;;;;;;;4899175;29;20214;-44
2022/09/14 08:38:25;;;;;;;12.07;6.37;;;;;;;;;;4896321;29;20550;-43
2022/09/14 08:40:51;;;;;;;12.13;7.23;;;;;;;;;;4899864;28;20175;-44
2022/09/14 08:43:19;;;;;;;9.90;6.05;;;;;;;;;;4897334;29;20424;-44
2022/09/14 08:45:45;;;;;;;8.10;5.40;;;;;;;;;;4896219;29;20173;-44
2022/09/14 08:48:19;;;;;;;8.47;4.93;;;;;;;;;;4899005;28;20407;-44
2022/09/14 08:50:46;;;;;;;9.87;5.00;;;;;;;;;;4901954;29;20176;-44
2022/09/14 08:53:12;;;;;;;9.13;4.10;;;;;;;;;;4901877;29;20213;-44
2022/09/14 08:55:40;;;;;;;11.80;4.60;;;;;;;;;;4895607;29;20184;-44
2022/09/14 08:58:13;;;;;;;9.93;4.20;;;;;;;;;;4896834;29;20182;-44
2022/09/14 09:00:42;;;;;;;6.43;4.03;;;;;;;;;;4897578;29;20187;-44
2022/09/14 09:03:08;;;;;;;7.10;3.43;;;;;;;;;;4899867;29;20240;-44
2022/09/14 09:05:34;;;;;;;6.77;3.40;;;;;;;;;;4895639;29;20315;-44
2022/09/14 09:08:13;;;;;;;9.90;3.70;;;;;;;;;;4899791;29;20459;-43
2022/09/14 09:10:39;;;;;;;10.30;3.93;;;;;;;;;;4899107;29;20190;-44
2022/09/14 09:13:07;;;;;;;6.90;3.80;;;;;;;;;;4900097;29;20200;-44
2022/09/14 09:15:48;;;;;;;7.07;3.23;;;;;;;;;;4893706;29;20721;-44
2022/09/14 09:18:17;;;;;;;6.23;3.73;;;;;;;;;;4899015;29;20469;-44
2022/09/14 09:20:50;;;;;;;8.93;3.77;;;;;;;;;;4900279;29;20176;-44
2022/09/14 09:23:18;;;;;;;7.53;3.63;;;;;;;;;;4896540;29;20358;-44
2022/09/14 09:25:47;;;;;;;8.98;3.42;;;;;;;;;;4893377;29;20441;-44
2022/09/14 09:28:14;;;;;;;11.17;3.80;;;;;;;;;;4899566;29;20188;-44
2022/09/14 09:30:40;;;;;;;11.47;3.90;;;;;;;;;;4901423;29;20185;-44
2022/09/14 09:33:07;;;;;;;10.50;3.90;;;;;;;;;;4899773;29;20867;-43
2022/09/14 09:35:33;;;;;;;7.90;4.10;;;;;;;;;;4896300;29;20284;-44
2022/09/14 09:37:59;;;;;;;8.97;4.00;;;;;;;;;;4898547;29;20545;-44
2022/09/14 09:40:30;;;;;;;8.53;3.40;;;;;;;;;;4900034;29;20183;-43
2022/09/14 09:43:22;;;;;;;4.20;2.67;;;;;;;;;;4900604;29;20557;-44
2022/09/14 09:45:51;;;;;;;8.10;3.00;;;;;;;;;;4898094;28;20188;-44
2022/09/14 09:48:19;;;;;;;9.10;3.23;;;;;;;;;;4900656;29;20188;-44
2022/09/14 09:50:56;;;;;;;6.93;2.43;;;;;;;;;;4897817;29;20183;-44
2022/09/14 09:53:23;;;;;;;6.23;2.57;;;;;;;;;;4899980;29;20208;-43
2022/09/14 09:55:49;;;;;;;4.77;3.17;;;;;;;;;;4894859;29;20494;-44
2022/09/14 09:58:31;;;;;;;9.63;3.20;;;;;;;;;;4894778;29;20272;-44
2022/09/14 10:00:59;;;;;;;6.20;2.70;;;;;;;;;;4899981;29;20179;-42
2022/09/14 10:03:36;;;;;;;3.67;2.40;;;;;;;;;;4898664;29;20180;-44
2022/09/14 10:06:13;;;;;;;7.70;2.73;;;;;;;;;;4897330;29;20172;-44
2022/09/14 10:08:44;;;;;;;5.07;2.43;;;;;;;;;;4904068;29;20928;-43
2022/09/14 10:11:29;;;;;;;4.27;2.27;;;;;;;;;;4902156;29;20477;-43
2022/09/14 10:13:55;;;;;;;5.83;2.30;;;;;;;;;;4899921;29;20188;-44
2022/09/14 10:16:21;;;;;;;4.33;2.20;;;;;;;;;;4899407;29;20872;-44
2022/09/14 10:18:49;;;;;;;5.43;2.50;;;;;;;;;;4903019;29;20199;-44
2022/09/14 10:21:16;;;;;;;4.73;2.40;;;;;;;;;;4902496;29;20238;-44
2022/09/14 10:23:42;;;;;;;5.37;2.10;;;;;;;;;;4900654;29;20329;-44
2022/09/14 10:26:11;;;;;;;6.30;2.40;;;;;;;;;;4901838;29;20184;-44
2022/09/14 10:28:38;;;;;;;10.17;2.50;;;;;;;;;;4901266;29;21500;-44
2022/09/14 10:31:19;;;;;;;3.17;2.00;;;;;;;;;;4902566;29;20256;-43
2022/09/14 10:33:46;;;;;;;7.30;1.83;;;;;;;;;;4901630;29;20184;-44
2022/09/14 10:36:24;;;;;;;6.57;2.17;;;;;;;;;;4902813;29;20337;-44
2022/09/14 10:38:57;;;;;;;5.87;2.30;;;;;;;;;;4902378;29;20258;-43
2022/09/14 10:41:44;;;;;;;7.57;2.17;;;;;;;;;;4903791;29;20180;-44
2022/09/14 10:44:28;;;;;;;5.33;2.20;;;;;;;;;;4901976;29;23105;-44
2022/09/14 10:47:10;;;;;;;9.13;2.53;;;;;;;;;;4901321;29;20275;-44
2022/09/14 10:49:42;;;;;;;9.63;2.50;;;;;;;;;;4903330;29;20187;-44
2022/09/14 10:52:16;;;;;;;5.57;2.00;;;;;;;;;;4903089;28;20204;-43
2022/09/14 10:55:05;;;;;;;8.13;2.33;;;;;;;;;;4900034;29;20176;-43
2022/09/14 10:57:39;;;;;;;5.87;2.20;;;;;;;;;;4902746;29;20422;-43
2022/09/14 11:00:11;;;;;;;10.97;2.60;;;;;;;;;;4900845;29;20232;-43
2022/09/14 11:02:40;;;;;;;4.60;2.20;;;;;;;;;;4898684;29;20170;-43
2022/09/14 11:05:21;;;;;;;3.97;1.87;;;;;;;;;;4901933;29;20324;-44
2022/09/14 11:07:56;;;;;;;5.53;2.27;;;;;;;;;;4901648;29;21023;-44
2022/09/14 11:10:26;;;;;;;9.20;2.20;;;;;;;;;;4900550;29;20183;-44
2022/09/14 11:12:55;;;;;;;9.33;2.77;;;;;;;;;;4900053;29;20246;-44
2022/09/14 11:15:28;;;;;;;9.93;2.43;;;;;;;;;;4902446;29;20168;-44
2022/09/14 11:18:00;;;;;;;8.10;2.33;;;;;;;;;;4902800;29;20327;-44
2022/09/14 11:20:36;;;;;;;6.00;2.20;;;;;;;;;;4899316;29;20187;-44
2022/09/14 11:23:02;;;;;;;7.57;2.50;;;;;;;;;;4897664;29;20187;-44
2022/09/14 11:25:43;;;;;;;4.20;2.40;;;;;;;;;;4905674;29;20651;-45
2022/09/14 11:28:12;;;;;;;8.13;2.50;;;;;;;;;;4901654;29;20182;-44
2022/09/14 11:30:56;;;;;;;8.73;2.60;;;;;;;;;;4900256;29;20680;-44
2022/09/14 11:33:27;;;;;;;6.47;2.43;;;;;;;;;;4900511;29;20550;-44
2022/09/14 11:36:16;;;;;;;9.37;2.80;;;;;;;;;;4901256;29;20171;-44
2022/09/14 11:38:46;;;;;;;6.67;2.27;;;;;;;;;;4902802;28;20756;-45
2022/09/14 11:41:21;;;;;;;9.40;2.60;;;;;;;;;;4899387;29;20168;-44
2022/09/14 11:43:53;;;;;;;7.60;2.67;;;;;;;;;;4897591;29;20427;-44
2022/09/14 11:46:39;;;;;;;5.70;2.70;;;;;;;;;;4901445;29;20188;-44
2022/09/14 11:49:11;;;;;;;7.30;2.83;;;;;;;;;;4898474;29;20180;-44
2022/09/14 11:51:46;;;;;;;6.73;2.50;;;;;;;;;;4900117;29;20619;-45
2022/09/14 11:54:17;;;;;;;7.23;2.53;;;;;;;;;;4898104;29;20168;-44
2022/09/14 11:56:46;;;;;;;5.03;2.70;;;;;;;;;;4899356;29;20169;-45
2022/09/14 11:59:32;;;;;;;9.00;2.50;;;;;;;;;;4903030;29;20740;-45
2022/09/14 12:02:18;;;;;;;12.37;3.30;;;;;;;;;;4901150;29;20179;-45
2022/09/14 12:05:03;;;;;;;5.70;2.30;;;;;;;;;;4899026;29;20176;-44
2022/09/14 12:07:41;;;;;;;10.60;2.57;;;;;;;;;;4897148;29;20195;-44
2022/09/14 12:10:14;;;;;;;8.33;2.27;;;;;;;;;;4899334;29;20280;-44
2022/09/14 12:12:41;;;;;;;7.23;2.20;;;;;;;;;;4901062;29;20201;-45
2022/09/14 12:15:26;;;;;;;5.97;2.57;;;;;;;;;;4899383;29;20442;-45
2022/09/14 12:18:12;;;;;;;6.27;2.33;;;;;;;;;;4900001;29;20180;-44
2022/09/14 12:20:41;;;;;;;5.57;2.50;;;;;;;;;;4906907;28;20443;-44
2022/09/14 12:23:10;;;;;;;4.17;1.90;;;;;;;;;;4901104;29;20790;-44
2022/09/14 12:25:38;;;;;;;6.87;2.20;;;;;;;;;;4899178;29;20483;-44
2022/09/14 12:28:24;;;;;;;10.37;2.90;;;;;;;;;;4913078;28;20358;-44
2022/09/14 12:30:53;;;;;;;6.27;2.20;;;;;;;;;;4899643;29;21167;-44
2022/09/14 12:33:34;;;;;;;6.00;2.00;;;;;;;;;;4900840;29;20550;-44
2022/09/14 12:36:04;;;;;;;4.03;1.70;;;;;;;;;;4899131;29;20472;-44
2022/09/14 12:38:30;;;;;;;3.63;1.80;;;;;;;;;;4897990;29;20188;-45
2022/09/14 12:40:59;;;;;;;3.20;1.57;;;;;;;;;;4906560;28;20351;-44
2022/09/14 12:43:35;;;;;;;4.50;1.83;;;;;;;;;;4898160;29;20631;-45
2022/09/14 12:46:01;;;;;;;6.43;2.07;;;;;;;;;;4895855;29;20943;-44
2022/09/14 12:49:03;;;;;;;8.20;2.37;;;;;;;;;;4893828;29;20176;-45
2022/09/14 12:51:30;;;;;;;4.07;2.10;;;;;;;;;;4937040;28;20572;-44
2022/09/14 12:54:02;;;;;;;6.50;2.07;;;;;;;;;;4905932;28;20192;-43
2022/09/14 12:56:28;;;;;;;4.00;1.87;;;;;;;;;;4900111;29;20514;-44
2022/09/14 12:59:13;;;;;;;3.97;1.63;;;;;;;;;;4898685;29;20211;-45
2022/09/14 13:01:59;;;;;;;7.23;2.00;;;;;;;;;;4900283;29;20180;-44
2022/09/14 13:04:27;;;;;;;3.77;1.43;;;;;;;;;;4898881;29;20184;-44
2022/09/14 13:06:55;;;;;;;3.57;2.00;;;;;;;;;;4897540;29;20799;-44
2022/09/14 13:09:28;;;;;;;3.37;1.77;;;;;;;;;;4898611;29;20291;-44
2022/09/14 13:11:54;;;;;;;4.00;2.10;;;;;;;;;;4900523;29;20202;-44
2022/09/14 13:14:22;;;;;;;3.47;1.63;;;;;;;;;;4900813;29;20181;-44
2022/09/14 13:16:50;;;;;;;5.53;1.77;;;;;;;;;;4898579;29;20267;-44
2022/09/14 13:19:24;;;;;;;5.13;1.50;;;;;;;;;;4896635;29;20196;-44
2022/09/14 13:21:52;;;;;;;5.47;1.70;;;;;;;;;;4896385;29;20191;-44
2022/09/14 13:24:26;;;;;;;6.10;1.80;;;;;;;;;;4901933;29;20805;-44
2022/09/14 13:26:53;;;;;;;4.53;1.77;;;;;;;;;;4899061;29;20943;-44
2022/09/14 13:29:20;;;;;;;3.60;1.67;;;;;;;;;;4895641;29;20188;-44
2022/09/14 13:31:46;;;;;;;6.27;2.00;;;;;;;;;;4899079;29;20436;-44
2022/09/14 13:34:33;;;;;;;4.20;1.70;;;;;;;;;;4898765;29;20697;-45
2022/09/14 13:36:59;;;;;;;2.73;1.70;;;;;;;;;;4898578;29;20189;-44
2022/09/14 13:39:27;;;;;;;4.30;1.70;;;;;;;;;;4895083;29;20181;-44
2022/09/14 13:41:54;;;;;;;4.60;2.10;;;;;;;;;;4897302;29;20262;-44
2022/09/14 13:44:26;;;;;;;3.87;1.90;;;;;;;;;;4903227;29;20279;-44
2022/09/14 13:46:52;;;;;;;4.37;1.53;;;;;;;;;;4898197;29;20969;-44
2022/09/14 13:49:18;;;;;;;6.47;1.80;;;;;;;;;;4897379;29;20184;-45
2022/09/14 13:51:44;;;;;;;7.57;2.20;;;;;;;;;;4898295;29;20378;-44
2022/09/14 13:54:37;;;;;;;7.80;2.03;;;;;;;;;;4899747;29;20580;-44
2022/09/14 13:57:12;;;;;;;9.50;2.70;;;;;;;;;;4898246;28;20184;-45
2022/09/14 13:59:58;;;;;;;6.13;1.80;;;;;;;;;;4897504;29;20692;-44
2022/09/14 14:02:26;;;;;;;7.87;2.10;;;;;;;;;;4899988;29;20303;-44
2022/09/14 14:04:52;;;;;;;7.83;1.70;;;;;;;;;;4901600;29;20212;-44
2022/09/14 14:07:21;;;;;;;5.37;1.80;;;;;;;;;;4899814;29;20283;-44
2022/09/14 14:09:58;;;;;;;8.27;1.83;;;;;;;;;;4898455;29;20208;-44
2022/09/14 14:12:29;;;;;;;5.43;1.90;;;;;;;;;;4896359;29;20206;-44
2022/09/14 14:14:59;;;;;;;3.33;1.53;;;;;;;;;;4900635;29;20180;-44
2022/09/14 14:17:28;;;;;;;6.27;1.70;;;;;;;;;;4896246;29;20184;-45
2022/09/14 14:19:55;;;;;;;7.93;1.97;;;;;;;;;;4895892;29;20530;-44
2022/09/14 14:22:29;;;;;;;14.27;2.40;;;;;;;;;;4899158;29;20276;-44
2022/09/14 14:24:55;;;;;;;6.50;1.90;;;;;;;;;;4894377;29;20318;-44
2022/09/14 14:27:31;;;;;;;5.63;1.90;;;;;;;;;;4895726;29;20292;-45
2022/09/14 14:29:59;;;;;;;5.63;1.80;;;;;;;;;;4896671;29;20777;-44
2022/09/14 14:32:26;;;;;;;7.83;2.10;;;;;;;;;;4896410;29;20848;-44
2022/09/14 14:34:52;;;;;;;7.27;1.97;;;;;;;;;;4898500;29;20184;-44
2022/09/14 14:37:19;;;;;;;10.47;2.23;;;;;;;;;;4897055;29;20297;-45
2022/09/14 14:39:45;;;;;;;10.53;2.70;;;;;;;;;;4897655;29;20183;-45
2022/09/14 14:42:13;;;;;;;10.33;2.70;;;;;;;;;;4898510;29;20184;-44
2022/09/14 14:44:39;;;;;;;11.23;2.60;;;;;;;;;;4899689;29;20292;-44